createdAt,value
2018-06-13T00:00:17.463Z,96649.06
2018-06-13T00:02:46.675Z,96643.06
2018-06-13T00:05:16.806Z,96645.66
2018-06-13T00:07:46.372Z,96646.46
2018-06-13T00:10:15.556Z,96645.66
2018-06-13T00:12:45.156Z,96650.20
2018-06-13T00:15:14.331Z,96652.08
2018-06-13T00:17:43.915Z,96652.89
2018-06-13T00:20:13.119Z,96651.23
2018-06-13T00:22:42.762Z,96651.54
2018-06-13T00:25:12.260Z,96654.47
2018-06-13T00:27:41.474Z,96656.66
2018-06-13T00:30:10.667Z,96660.47
2018-06-13T00:32:39.889Z,96658.28
2018-06-13T00:35:09.103Z,96656.70
2018-06-13T00:37:38.358Z,96662.40
2018-06-13T00:40:22.171Z,96663.17
2018-06-13T00:43:02.912Z,96660.47
2018-06-13T00:45:33.098Z,96655.93
2018-06-13T00:48:02.298Z,96646.19
2018-06-13T00:50:31.484Z,96647.61
2018-06-13T00:53:00.686Z,96653.30
2018-06-13T00:55:29.987Z,96649.53
2018-06-13T00:57:59.240Z,96647.41
2018-06-13T01:00:28.442Z,96648.52
2018-06-13T01:02:57.982Z,96645.29
2018-06-13T01:05:27.610Z,96652.26
2018-06-13T01:07:56.799Z,96647.88
2018-06-13T01:10:26.347Z,96656.50
2018-06-13T01:12:55.610Z,96655.97
2018-06-13T01:15:25.099Z,96655.35
2018-06-13T01:17:54.605Z,96655.09
2018-06-13T01:20:23.791Z,96651.58
2018-06-13T01:22:53.267Z,96645.07
2018-06-13T01:25:23.079Z,96655.59
2018-06-13T01:27:52.259Z,96647.23
2018-06-13T01:30:22.030Z,96654.73
2018-06-13T01:32:51.203Z,96654.97
2018-06-13T01:35:20.427Z,96651.77
2018-06-13T01:37:49.651Z,96654.78
2018-06-13T01:40:19.568Z,96661.28
2018-06-13T01:42:48.730Z,96654.58
2018-06-13T01:45:17.942Z,96649.73
2018-06-13T01:47:47.478Z,96652.70
2018-06-13T01:50:16.710Z,96652.12
2018-06-13T01:52:46.654Z,96655.63
2018-06-13T01:55:15.850Z,96648.08
2018-06-13T01:57:45.263Z,96646.19
2018-06-13T02:00:14.800Z,96652.66
2018-06-13T02:02:44.210Z,96651.00
2018-06-13T02:05:16.026Z,96651.58
2018-06-13T02:07:45.610Z,96648.84
2018-06-13T02:10:14.855Z,96649.20
2018-06-13T02:12:44.048Z,96656.13
2018-06-13T02:15:13.282Z,96655.66
2018-06-13T02:17:42.460Z,96650.78
2018-06-13T02:20:11.894Z,96652.20
2018-06-13T02:22:41.263Z,96657.05
2018-06-13T02:25:10.815Z,96655.39
2018-06-13T02:27:40.613Z,96654.86
2018-06-13T02:30:09.795Z,96648.92
2018-06-13T02:32:41.843Z,96649.50
2018-06-13T02:35:11.399Z,96648.09
2018-06-13T02:37:40.931Z,96646.27
2018-06-13T02:40:10.496Z,96645.22
2018-06-13T02:42:39.667Z,96640.95
2018-06-13T02:45:08.875Z,96640.70
2018-06-13T02:47:38.796Z,96646.03
2018-06-13T02:50:07.995Z,96647.41
2018-06-13T02:52:37.181Z,96650.11
2018-06-13T02:55:06.818Z,96653.34
2018-06-13T02:57:36.330Z,96649.56
2018-06-13T03:00:06.497Z,96651.95
2018-06-13T03:02:35.663Z,96652.80
2018-06-13T03:05:04.884Z,96658.55
2018-06-13T03:07:34.442Z,96665.27
2018-06-13T03:10:03.808Z,96653.16
2018-06-13T03:12:33.088Z,96649.41
2018-06-13T03:15:03.019Z,96649.92
2018-06-13T03:17:32.209Z,96652.56
2018-06-13T03:20:01.435Z,96652.08
2018-06-13T03:22:30.634Z,96650.73
2018-06-13T03:24:59.968Z,96651.06
2018-06-13T03:27:29.353Z,96651.57
2018-06-13T03:29:59.117Z,96663.69
2018-06-13T03:32:28.446Z,96659.41
2018-06-13T03:34:57.656Z,96664.25
2018-06-13T03:37:26.820Z,96671.25
2018-06-13T03:39:56.240Z,96675.28
2018-06-13T03:42:25.480Z,96666.41
2018-06-13T03:44:54.814Z,96676.31
2018-06-13T03:47:23.990Z,96673.16
2018-06-13T03:49:53.196Z,96676.64
2018-06-13T03:52:22.465Z,96677.44
2018-06-13T03:54:51.891Z,96672.55
2018-06-13T03:57:21.452Z,96676.05
2018-06-13T03:59:50.887Z,96678.17
2018-06-13T04:02:20.465Z,96676.05
2018-06-13T04:04:50.027Z,96686.02
2018-06-13T04:07:19.277Z,96679.01
2018-06-13T04:09:48.498Z,96680.94
2018-06-13T04:12:17.994Z,96690.95
2018-06-13T04:14:47.595Z,96689.07
2018-06-13T04:17:16.806Z,96697.70
2018-06-13T04:19:46.039Z,96695.05
2018-06-13T04:22:15.531Z,96705.27
2018-06-13T04:24:44.762Z,96693.64
2018-06-13T04:27:13.954Z,96696.60
2018-06-13T04:29:43.587Z,96696.54
2018-06-13T04:32:12.788Z,96699.20
2018-06-13T04:34:42.005Z,96699.48
2018-06-13T04:37:12.371Z,96704.84
2018-06-13T04:39:41.594Z,96710.25
2018-06-13T04:42:11.091Z,96706.97
2018-06-13T04:44:40.346Z,96712.20
2018-06-13T04:47:09.551Z,96708.14
2018-06-13T04:49:38.790Z,96707.31
2018-06-13T04:52:07.955Z,96694.84
2018-06-13T04:54:37.175Z,96708.91
2018-06-13T04:57:06.402Z,96711.30
2018-06-13T04:59:35.585Z,96709.52
2018-06-13T05:02:05.118Z,96706.70
2018-06-13T05:04:34.346Z,96707.55
2018-06-13T05:07:03.590Z,96710.79
2018-06-13T05:09:32.823Z,96720.55
2018-06-13T05:12:02.108Z,96717.77
2018-06-13T05:14:31.288Z,96707.75
2018-06-13T05:17:00.527Z,96714.67
2018-06-13T05:19:29.699Z,96718.95
2018-06-13T05:21:58.923Z,96720.73
2018-06-13T05:24:28.102Z,96720.47
2018-06-13T05:26:58.326Z,96725.05
2018-06-13T05:29:27.538Z,96725.83
2018-06-13T05:31:57.090Z,96729.53
2018-06-13T05:34:26.427Z,96731.31
2018-06-13T05:36:55.648Z,96730.41
2018-06-13T05:39:24.829Z,96733.84
2018-06-13T05:41:54.129Z,96721.81
2018-06-13T05:44:23.298Z,96717.23
2018-06-13T05:46:53.210Z,96726.63
2018-06-13T05:49:22.395Z,96727.89
2018-06-13T05:51:51.611Z,96731.44
2018-06-13T05:54:21.065Z,96738.77
2018-06-13T05:56:50.291Z,96740.88
2018-06-13T05:59:19.459Z,96740.88
2018-06-13T06:01:48.663Z,96739.16
2018-06-13T06:04:17.831Z,96738.23
2018-06-13T06:06:47.268Z,96742.67
2018-06-13T06:09:16.646Z,96744.08
2018-06-13T06:11:46.095Z,96751.29
2018-06-13T06:14:15.411Z,96744.62
2018-06-13T06:16:45.422Z,96758.15
2018-06-13T06:19:14.641Z,96755.14
2018-06-13T06:21:44.316Z,96753.72
2018-06-13T06:24:13.510Z,96752.06
2018-06-13T06:26:43.052Z,96751.30
2018-06-13T06:29:12.243Z,96755.53
2018-06-13T06:31:41.442Z,96763.63
2018-06-13T06:34:10.644Z,96765.97
2018-06-13T06:36:40.052Z,96772.09
2018-06-13T06:39:09.614Z,96766.52
2018-06-13T06:41:38.951Z,96770.52
2018-06-13T06:44:08.135Z,96765.48
2018-06-13T06:46:37.646Z,96768.09
2018-06-13T06:49:06.947Z,96773.69
2018-06-13T06:51:36.158Z,96779.36
2018-06-13T06:54:05.378Z,96771.43
2018-06-13T06:56:34.783Z,96769.61
2018-06-13T06:59:03.976Z,96778.28
2018-06-13T07:01:33.213Z,96776.14
2018-06-13T07:04:02.396Z,96784.31
2018-06-13T07:06:31.978Z,96778.56
2018-06-13T07:09:01.155Z,96774.51
2018-06-13T07:11:30.474Z,96775.94
2018-06-13T07:13:59.675Z,96765.97
2018-06-13T07:16:28.898Z,96775.69
2018-06-13T07:18:58.129Z,96773.93
2018-06-13T07:21:27.417Z,96777.33
2018-06-13T07:23:56.594Z,96777.66
2018-06-13T07:26:25.798Z,96777.95
2018-06-13T07:28:55.127Z,96780.29
2018-06-13T07:31:24.334Z,96787.07
2018-06-13T07:33:53.947Z,96787.08
2018-06-13T07:36:23.311Z,96783.55
2018-06-13T07:38:52.635Z,96786.97
2018-06-13T07:41:21.852Z,96788.92
2018-06-13T07:43:51.131Z,96784.49
2018-06-13T07:46:20.447Z,96776.31
2018-06-13T07:48:49.851Z,96783.13
2018-06-13T07:51:19.492Z,96772.31
2018-06-13T07:53:48.663Z,96781.70
2018-06-13T07:56:17.867Z,96789.92
2018-06-13T07:58:47.054Z,96784.25
2018-06-13T08:01:16.257Z,96786.14
2018-06-13T08:03:45.638Z,96788.85
2018-06-13T08:06:14.843Z,96792.41
2018-06-13T08:08:44.143Z,96794.96
2018-06-13T08:11:13.663Z,96793.89
2018-06-13T08:13:43.187Z,96799.59
2018-06-13T08:16:12.691Z,96803.48
2018-06-13T08:18:41.909Z,96801.54
2018-06-13T08:21:11.087Z,96799.33
2018-06-13T08:23:40.275Z,96807.63
2018-06-13T08:26:09.639Z,96812.16
2018-06-13T08:28:39.546Z,96813.52
2018-06-13T08:31:08.725Z,96811.83
2018-06-13T08:33:37.937Z,96815.86
2018-06-13T08:36:07.274Z,96805.19
2018-06-13T08:38:36.575Z,96810.52
2018-06-13T08:41:05.770Z,96800.72
2018-06-13T08:43:34.962Z,96801.29
2018-06-13T08:46:04.302Z,96803.14
2018-06-13T08:48:34.218Z,96792.94
2018-06-13T08:51:03.347Z,96803.47
2018-06-13T08:53:32.567Z,96802.64
2018-06-13T08:56:01.757Z,96808.86
2018-06-13T08:58:30.963Z,96812.09
2018-06-13T09:01:00.166Z,96809.47
2018-06-13T09:03:29.362Z,96818.25
2018-06-13T09:05:58.558Z,96807.29
2018-06-13T09:08:29.051Z,96814.46
2018-06-13T09:10:58.231Z,96817.30
2018-06-13T09:13:27.487Z,96818.05
2018-06-13T09:15:56.623Z,96820.25
2018-06-13T09:18:26.291Z,96817.94
2018-06-13T09:20:55.678Z,96811.66
2018-06-13T09:23:25.608Z,96824.80
2018-06-13T09:25:54.795Z,96820.31
2018-06-13T09:28:24.315Z,96816.44
2018-06-13T09:30:54.127Z,96822.56
2018-06-13T09:33:23.327Z,96826.19
2018-06-13T09:35:52.799Z,96828.41
2018-06-13T09:38:22.731Z,96831.31
2018-06-13T09:40:51.930Z,96834.41
2018-06-13T09:43:21.295Z,96838.60
2018-06-13T09:45:50.591Z,96841.20
2018-06-13T09:48:19.778Z,96837.61
2018-06-13T09:50:49.262Z,96842.92
2018-06-13T09:53:18.790Z,96842.64
2018-06-13T09:55:47.992Z,96846.90
2018-06-13T09:58:17.178Z,96851.63
2018-06-13T10:00:51.535Z,96851.97
2018-06-13T10:03:20.739Z,96859.27
2018-06-13T10:05:49.930Z,96861.34
2018-06-13T10:08:19.426Z,96856.43
2018-06-13T10:10:48.775Z,96857.48
2018-06-13T10:13:17.974Z,96862.25
2018-06-13T10:15:47.143Z,96858.98
2018-06-13T10:18:17.178Z,96857.20
2018-06-13T10:20:46.350Z,96860.81
2018-06-13T10:23:15.555Z,96863.59
2018-06-13T10:25:44.863Z,96859.86
2018-06-13T10:28:14.066Z,96872.69
2018-06-13T10:30:43.770Z,96869.34
2018-06-13T10:33:12.983Z,96872.34
2018-06-13T10:35:42.170Z,96870.92
2018-06-13T10:38:11.467Z,96868.34
2018-06-13T10:40:40.939Z,96862.86
2018-06-13T10:43:10.533Z,96863.27
2018-06-13T10:45:40.078Z,96865.00
2018-06-13T10:48:09.275Z,96862.20
2018-06-13T10:50:38.435Z,96860.11
2018-06-13T10:53:07.832Z,96849.37
2018-06-13T10:55:37.804Z,96847.33
2018-06-13T10:58:06.951Z,96861.00
2018-06-13T11:00:36.463Z,96858.25
2018-06-13T11:03:05.817Z,96862.54
2018-06-13T11:05:34.984Z,96860.81
2018-06-13T11:08:04.315Z,96862.70
2018-06-13T11:10:33.500Z,96861.49
2018-06-13T11:13:02.731Z,96859.27
2018-06-13T11:15:31.886Z,96857.83
2018-06-13T11:18:01.089Z,96865.31
2018-06-13T11:20:30.656Z,96866.30
2018-06-13T11:23:00.023Z,96867.30
2018-06-13T11:25:29.192Z,96870.24
2018-06-13T11:27:58.391Z,96869.33
2018-06-13T11:30:27.555Z,96870.73
2018-06-13T11:32:56.981Z,96870.49
2018-06-13T11:35:26.148Z,96879.81
2018-06-13T11:37:55.362Z,96888.62
2018-06-13T11:40:24.800Z,96889.53
2018-06-13T11:42:54.016Z,96879.73
2018-06-13T11:45:23.556Z,96888.52
2018-06-13T11:47:52.786Z,96881.70
2018-06-13T11:50:21.967Z,96882.35
2018-06-13T11:52:51.187Z,96882.11
2018-06-13T11:55:20.470Z,96881.39
2018-06-13T11:57:51.320Z,96888.68
2018-06-13T12:00:20.576Z,96885.53
2018-06-13T12:02:50.018Z,96885.05
2018-06-13T12:05:19.227Z,96885.28
2018-06-13T12:07:48.443Z,96886.52
2018-06-13T12:10:17.615Z,96888.16
2018-06-13T12:12:47.231Z,96888.91
2018-06-13T12:15:16.435Z,96889.48
2018-06-13T12:17:45.605Z,96894.30
2018-06-13T12:20:14.798Z,96896.20
2018-06-13T12:22:43.998Z,96892.86
2018-06-13T12:25:13.216Z,96889.16
2018-06-13T12:27:42.418Z,96891.97
2018-06-13T12:30:11.623Z,96884.92
2018-06-13T12:32:40.791Z,96889.64
2018-06-13T12:35:10.007Z,96891.45
2018-06-13T12:37:39.415Z,96889.03
2018-06-13T12:40:08.647Z,96899.37
2018-06-13T12:42:37.799Z,96897.01
2018-06-13T12:45:07.204Z,96896.94
2018-06-13T12:47:36.373Z,96901.24
2018-06-13T12:50:06.211Z,96904.78
2018-06-13T12:52:35.391Z,96899.23
2018-06-13T12:55:05.019Z,96900.41
2018-06-13T12:57:34.199Z,96893.48
2018-06-13T13:00:03.571Z,96900.93
2018-06-13T13:02:32.751Z,96896.41
2018-06-13T13:05:01.968Z,96899.04
2018-06-13T13:07:31.526Z,96896.58
2018-06-13T13:10:00.707Z,96897.63
2018-06-13T13:12:30.258Z,96906.50
2018-06-13T13:14:59.463Z,96905.78
2018-06-13T13:17:28.646Z,96905.38
2018-06-13T13:19:57.847Z,96906.38
2018-06-13T13:22:27.435Z,96903.36
2018-06-13T13:24:56.644Z,96901.30
2018-06-13T13:27:25.813Z,96905.76
2018-06-13T13:29:55.023Z,96913.84
2018-06-13T13:32:24.202Z,96917.64
2018-06-13T13:34:53.871Z,96919.86
2018-06-13T13:37:23.058Z,96919.66
2018-06-13T13:39:52.278Z,96918.78
2018-06-13T13:42:21.483Z,96925.14
2018-06-13T13:44:50.675Z,96921.05
2018-06-13T13:47:19.869Z,96921.14
2018-06-13T13:49:49.295Z,96925.80
2018-06-13T13:52:18.496Z,96927.12
2018-06-13T13:54:48.523Z,96930.12
2018-06-13T13:57:17.743Z,96934.10
2018-06-13T13:59:46.955Z,96919.73
2018-06-13T14:02:16.308Z,96921.35
2018-06-13T14:04:45.518Z,96912.06
2018-06-13T14:07:15.057Z,96912.92
2018-06-13T14:09:44.255Z,96914.05
2018-06-13T14:12:13.669Z,96918.78
2018-06-13T14:14:42.949Z,96916.97
2018-06-13T14:17:12.119Z,96916.03
2018-06-13T14:19:41.571Z,96924.13
2018-06-13T14:22:10.747Z,96919.09
2018-06-13T14:24:39.945Z,96922.16
2018-06-13T14:27:09.147Z,96924.89
2018-06-13T14:29:38.621Z,96920.40
2018-06-13T14:32:07.940Z,96918.97
2018-06-13T14:34:37.159Z,96918.78
2018-06-13T14:37:06.368Z,96919.70
2018-06-13T14:39:36.083Z,96928.00
2018-06-13T14:42:05.587Z,96927.73
2018-06-13T14:44:34.787Z,96935.09
2018-06-13T14:47:04.099Z,96931.19
2018-06-13T14:49:33.384Z,96929.78
2018-06-13T14:52:02.604Z,96932.83
2018-06-13T14:54:32.011Z,96932.53
2018-06-13T14:57:01.199Z,96928.05
2018-06-13T14:59:30.548Z,96933.09
2018-06-13T15:01:59.784Z,96935.86
2018-06-13T15:04:34.303Z,96931.37
2018-06-13T15:07:05.742Z,96929.29
2018-06-13T15:09:35.567Z,96926.62
2018-06-13T15:12:05.158Z,96932.22
2018-06-13T15:14:34.392Z,96927.51
2018-06-13T15:17:04.042Z,96926.28
2018-06-13T15:19:33.862Z,96922.52
2018-06-13T15:22:03.750Z,96925.23
2018-06-13T15:24:33.402Z,96916.72
2018-06-13T15:27:02.699Z,96920.30
2018-06-13T15:29:32.538Z,96924.55
2018-06-13T15:32:01.890Z,96926.28
2018-06-13T15:34:31.083Z,96918.25
2018-06-13T15:37:00.263Z,96911.06
2018-06-13T15:39:29.472Z,96918.38
2018-06-13T15:41:58.847Z,96912.30
2018-06-13T15:44:28.103Z,96909.45
2018-06-13T15:46:57.289Z,96912.81
2018-06-13T15:49:26.472Z,96909.24
2018-06-13T15:51:55.875Z,96913.97
2018-06-13T15:54:25.139Z,96913.83
2018-06-13T15:56:54.310Z,96913.33
2018-06-13T15:59:23.502Z,96905.46
2018-06-13T16:01:53.095Z,96907.80
2018-06-13T16:04:22.318Z,96910.81
2018-06-13T16:06:51.532Z,96912.96
2018-06-13T16:09:20.691Z,96907.78
2018-06-13T16:11:49.903Z,96913.06
2018-06-13T16:14:19.975Z,96910.69
2018-06-13T16:16:49.463Z,96916.17
2018-06-13T16:19:18.599Z,96908.86
2018-06-13T16:21:48.490Z,96911.45
2018-06-13T16:24:17.682Z,96908.48
2018-06-13T16:26:47.305Z,96918.83
2018-06-13T16:29:16.476Z,96921.96
2018-06-13T16:31:45.911Z,96925.13
2018-06-13T16:34:15.248Z,96919.61
2018-06-13T16:36:44.491Z,96919.48
2018-06-13T16:39:14.102Z,96919.33
2018-06-13T16:41:43.734Z,96917.38
2018-06-13T16:44:13.027Z,96920.25
2018-06-13T16:46:42.446Z,96924.41
2018-06-13T16:49:11.958Z,96921.89
2018-06-13T16:51:57.701Z,96925.16
2018-06-13T16:54:38.048Z,96938.61
2018-06-13T16:57:09.716Z,96937.48
2018-06-13T16:59:38.935Z,96930.34
2018-06-13T17:02:08.145Z,96942.90
2018-06-13T17:04:37.298Z,96942.20
2018-06-13T17:07:06.794Z,96944.22
2018-06-13T17:09:35.983Z,96942.86
2018-06-13T17:12:05.194Z,96948.09
2018-06-13T17:14:34.367Z,96937.69
2018-06-13T17:17:03.565Z,96930.48
2018-06-13T17:19:32.970Z,96938.20
2018-06-13T17:22:03.324Z,96941.50
2018-06-13T17:24:33.483Z,96936.66
2018-06-13T17:27:02.780Z,96941.67
2018-06-13T17:29:31.972Z,96944.56
2018-06-13T17:32:01.176Z,96943.95
2018-06-13T17:34:30.382Z,96953.52
2018-06-13T17:36:59.854Z,96947.73
2018-06-13T17:39:29.110Z,96949.38
2018-06-13T17:41:58.299Z,96952.44
2018-06-13T17:44:28.242Z,96950.81
2018-06-13T17:46:57.642Z,96940.84
2018-06-13T17:49:27.496Z,96955.95
2018-06-13T17:53:26.139Z,96956.03
2018-06-13T17:55:55.343Z,96960.78
2018-06-13T17:58:24.798Z,96964.34
2018-06-13T18:00:54.413Z,96966.77
2018-06-13T18:03:23.827Z,96967.41
2018-06-13T18:05:53.132Z,96966.98
2018-06-13T18:08:22.527Z,96973.02
2018-06-13T18:10:52.933Z,96976.67
2018-06-13T18:13:22.534Z,96976.49
2018-06-13T18:15:51.865Z,96985.14
2018-06-13T18:18:21.351Z,96985.69
2018-06-13T18:20:50.898Z,96987.30
2018-06-13T18:23:20.166Z,96989.47
2018-06-13T18:25:49.402Z,96982.00
2018-06-13T18:28:18.603Z,96986.18
2018-06-13T18:30:48.174Z,96980.39
2018-06-13T18:33:17.407Z,96981.57
2018-06-13T18:35:46.969Z,96982.66
2018-06-13T18:38:16.183Z,96983.36
2018-06-13T18:40:45.379Z,96997.73
2018-06-13T18:43:14.610Z,96998.77
2018-06-13T18:45:44.282Z,97003.22
2018-06-13T18:48:13.889Z,96993.23
2018-06-13T18:50:43.191Z,96993.77
2018-06-13T18:53:13.412Z,96996.20
2018-06-13T18:55:42.633Z,97000.89
2018-06-13T18:58:12.236Z,96999.53
2018-06-13T19:00:41.692Z,96999.92
2018-06-13T19:03:10.890Z,97001.62
2018-06-13T19:05:40.140Z,97004.90
2018-06-13T19:08:09.364Z,96997.13
2018-06-13T19:10:38.583Z,96998.52
2018-06-13T19:13:08.362Z,96997.77
2018-06-13T19:15:37.551Z,97003.71
2018-06-13T19:18:07.651Z,97002.63
2018-06-13T19:20:36.837Z,96998.88
2018-06-13T19:23:05.772Z,97000.50
2018-06-13T19:25:34.995Z,96992.73
2018-06-13T19:28:04.490Z,96995.70
2018-06-13T19:30:33.654Z,96997.83
2018-06-13T19:33:02.839Z,96996.31
2018-06-13T19:35:32.255Z,97006.58
2018-06-13T19:38:01.455Z,97002.06
2018-06-13T19:40:30.647Z,97002.08
2018-06-13T19:42:59.945Z,97001.30
2018-06-13T19:45:29.439Z,97002.12
2018-06-13T19:48:04.310Z,97003.73
2018-06-13T19:50:33.487Z,97012.64
2018-06-13T19:53:08.047Z,97007.80
2018-06-13T19:55:42.909Z,97012.66
2018-06-13T19:58:12.121Z,97018.84
2018-06-13T20:00:41.342Z,97012.36
2018-06-13T20:03:15.835Z,97010.77
2018-06-13T20:05:45.055Z,97012.13
2018-06-13T20:08:14.254Z,97019.11
2018-06-13T20:10:43.735Z,97022.08
2018-06-13T20:13:18.122Z,97016.41
2018-06-13T20:15:52.863Z,97022.61
2018-06-13T20:18:27.355Z,97019.11
2018-06-13T20:20:56.523Z,97016.40
2018-06-13T20:23:25.886Z,97022.34
2018-06-13T20:26:00.399Z,97024.80
2018-06-13T20:28:35.167Z,97024.26
2018-06-13T20:31:09.666Z,97030.73
2018-06-13T20:33:38.867Z,97029.92
2018-06-13T20:36:08.071Z,97029.14
2018-06-13T20:38:37.762Z,97029.39
2018-06-13T20:41:07.226Z,97033.17
2018-06-13T20:43:36.455Z,97032.36
2018-06-13T20:46:06.314Z,97024.83
2018-06-13T20:48:35.507Z,97026.17
2018-06-13T20:51:04.803Z,97028.60
2018-06-13T20:53:34.660Z,97028.87
2018-06-13T20:56:04.281Z,97032.91
2018-06-13T20:58:33.503Z,97040.72
2018-06-13T21:01:02.808Z,97038.58
2018-06-13T21:03:31.987Z,97048.81
2018-06-13T21:06:01.204Z,97054.44
2018-06-13T21:08:30.371Z,97052.55
2018-06-13T21:10:59.569Z,97059.29
2018-06-13T21:13:28.734Z,97069.27
2018-06-13T21:15:57.934Z,97060.06
2018-06-13T21:18:27.259Z,97066.22
2018-06-13T21:20:56.465Z,97066.75
2018-06-13T21:23:25.630Z,97068.05
2018-06-13T21:25:54.875Z,97070.98
2018-06-13T21:28:24.247Z,97073.91
2018-06-13T21:30:53.589Z,97070.94
2018-06-13T21:33:22.763Z,97067.37
2018-06-13T21:35:51.964Z,97060.07
2018-06-13T21:38:21.130Z,97067.22
2018-06-13T21:40:50.362Z,97080.86
2018-06-13T21:43:19.867Z,97080.27
2018-06-13T21:45:49.102Z,97079.13
2018-06-13T21:48:18.711Z,97066.16
2018-06-13T21:50:47.919Z,97064.47
2018-06-13T21:53:17.263Z,97058.69
2018-06-13T21:55:46.699Z,97065.86
2018-06-13T21:58:15.878Z,97067.36
2018-06-13T22:00:45.073Z,97073.98
2018-06-13T22:03:14.231Z,97075.98
2018-06-13T22:05:43.448Z,97076.65
2018-06-13T22:08:13.167Z,97074.39
2018-06-13T22:10:42.342Z,97075.81
2018-06-13T22:13:11.515Z,97074.88
2018-06-13T22:15:40.699Z,97072.84
2018-06-13T22:18:09.862Z,97068.13
2018-06-13T22:20:39.231Z,97069.11
2018-06-13T22:23:08.423Z,97073.36
2018-06-13T22:25:37.648Z,97069.86
2018-06-13T22:28:06.839Z,97072.64
2018-06-13T22:30:36.006Z,97079.92
2018-06-13T22:33:05.198Z,97072.58
2018-06-13T22:35:34.385Z,97067.44
2018-06-13T22:38:03.554Z,97067.60
2018-06-13T22:40:32.762Z,97062.16
2018-06-13T22:43:02.020Z,97065.38
2018-06-13T22:45:31.183Z,97064.53
2018-06-13T22:48:00.364Z,97059.10
2018-06-13T22:50:29.540Z,97057.05
2018-06-13T22:52:58.818Z,97058.84
2018-06-13T22:55:27.998Z,97063.47
2018-06-13T22:57:57.266Z,97075.44
2018-06-13T23:00:37.202Z,97065.08
2018-06-13T23:03:06.312Z,97063.48
2018-06-13T23:05:35.486Z,97068.95
2018-06-13T23:08:04.726Z,97064.39
2018-06-13T23:10:33.896Z,97065.48
2018-06-13T23:13:03.563Z,97068.48
2018-06-13T23:15:32.851Z,97059.32
2018-06-13T23:18:02.067Z,97057.05
2018-06-13T23:20:31.242Z,97058.81
2018-06-13T23:23:00.511Z,97054.94
2018-06-13T23:25:29.684Z,97047.41
2018-06-13T23:27:59.059Z,97044.34
2018-06-13T23:30:28.431Z,97041.64
2018-06-13T23:32:57.660Z,97035.61
2018-06-13T23:35:26.779Z,97032.64
2018-06-13T23:37:56.450Z,97035.29
2018-06-13T23:40:25.762Z,97034.77
2018-06-13T23:42:55.415Z,97038.69
2018-06-13T23:45:24.847Z,97035.03
2018-06-13T23:47:54.014Z,97031.23
2018-06-13T23:50:23.210Z,97031.42
2018-06-13T23:52:52.357Z,97020.05
2018-06-13T23:55:21.523Z,97020.54
2018-06-13T23:57:50.705Z,97022.33
